sensor_id;sensor_type;location;lat;lon;timestamp;pressure;altitude;pressure_sealevel;temperature;humidity
75166;BME280;63747;48.042;10.088;2023-11-21T00:01:30;94638.75;;;5.34;70.40
75166;BME280;63747;48.042;10.088;2023-11-21T00:04:31;94636.50;;;5.39;70.23
75166;BME280;63747;48.042;10.088;2023-11-21T00:07:31;94646.84;;;5.41;70.09
75166;BME280;63747;48.042;10.088;2023-11-21T00:10:32;94645.03;;;5.41;70.20
75166;BME280;63747;48.042;10.088;2023-11-21T00:13:33;94641.59;;;5.41;70.17
75166;BME280;63747;48.042;10.088;2023-11-21T00:16:34;94652.78;;;5.43;70.37
75166;BME280;63747;48.042;10.088;2023-11-21T00:19:35;94650.47;;;5.40;70.40
75166;BME280;63747;48.042;10.088;2023-11-21T00:22:36;94652.09;;;5.41;70.35
75166;BME280;63747;48.042;10.088;2023-11-21T00:25:37;94658.88;;;5.43;70.43
75166;BME280;63747;48.042;10.088;2023-11-21T00:28:37;94653.63;;;5.43;70.69
75166;BME280;63747;48.042;10.088;2023-11-21T00:31:38;94652.31;;;5.48;70.77
75166;BME280;63747;48.042;10.088;2023-11-21T00:34:39;94653.94;;;5.49;70.90
75166;BME280;63747;48.042;10.088;2023-11-21T00:37:40;94656.91;;;5.46;70.95
75166;BME280;63747;48.042;10.088;2023-11-21T00:40:41;94664.94;;;5.44;71.15
75166;BME280;63747;48.042;10.088;2023-11-21T00:43:42;94653.91;;;5.40;71.13
75166;BME280;63747;48.042;10.088;2023-11-21T00:46:44;94653.09;;;5.40;71.38
75166;BME280;63747;48.042;10.088;2023-11-21T00:49:45;94650.63;;;5.38;71.60
75166;BME280;63747;48.042;10.088;2023-11-21T00:52:45;94652.59;;;5.36;71.72
75166;BME280;63747;48.042;10.088;2023-11-21T00:55:46;94657.97;;;5.35;71.79
75166;BME280;63747;48.042;10.088;2023-11-21T00:58:48;94659.28;;;5.31;71.78
75166;BME280;63747;48.042;10.088;2023-11-21T01:01:52;94660.28;;;5.30;71.85
75166;BME280;63747;48.042;10.088;2023-11-21T01:04:54;94668.16;;;5.30;71.84
75166;BME280;63747;48.042;10.088;2023-11-21T01:07:55;94668.97;;;5.30;71.77
75166;BME280;63747;48.042;10.088;2023-11-21T01:10:55;94669.25;;;5.27;71.68
75166;BME280;63747;48.042;10.088;2023-11-21T01:13:56;94657.94;;;5.27;72.01
75166;BME280;63747;48.042;10.088;2023-11-21T01:16:57;94657.63;;;5.30;72.16
75166;BME280;63747;48.042;10.088;2023-11-21T01:19:58;94648.25;;;5.27;72.02
75166;BME280;63747;48.042;10.088;2023-11-21T01:22:59;94647.59;;;5.25;72.23
75166;BME280;63747;48.042;10.088;2023-11-21T01:26:00;94646.38;;;5.20;72.16
75166;BME280;63747;48.042;10.088;2023-11-21T01:29:00;94652.63;;;5.19;72.34
75166;BME280;63747;48.042;10.088;2023-11-21T01:32:02;94645.72;;;5.18;72.40
75166;BME280;63747;48.042;10.088;2023-11-21T01:35:04;94652.09;;;5.15;72.54
75166;BME280;63747;48.042;10.088;2023-11-21T01:38:06;94655.72;;;5.14;72.51
75166;BME280;63747;48.042;10.088;2023-11-21T01:41:08;94649.47;;;5.15;72.62
75166;BME280;63747;48.042;10.088;2023-11-21T01:44:11;94643.41;;;5.14;72.62
75166;BME280;63747;48.042;10.088;2023-11-21T01:47:13;94652.25;;;5.13;72.85
75166;BME280;63747;48.042;10.088;2023-11-21T01:50:16;94657.13;;;5.08;72.83
75166;BME280;63747;48.042;10.088;2023-11-21T01:53:17;94657.00;;;5.10;73.00
75166;BME280;63747;48.042;10.088;2023-11-21T01:56:19;94659.75;;;5.08;72.93
75166;BME280;63747;48.042;10.088;2023-11-21T01:59:21;94667.50;;;5.10;73.21
75166;BME280;63747;48.042;10.088;2023-11-21T02:02:22;94661.72;;;5.06;73.24
75166;BME280;63747;48.042;10.088;2023-11-21T02:05:24;94664.72;;;5.11;73.13
75166;BME280;63747;48.042;10.088;2023-11-21T02:08:26;94662.09;;;5.11;73.27
75166;BME280;63747;48.042;10.088;2023-11-21T02:11:27;94669.00;;;5.12;73.52
75166;BME280;63747;48.042;10.088;2023-11-21T02:14:27;94665.22;;;5.15;73.60
75166;BME280;63747;48.042;10.088;2023-11-21T02:17:28;94668.38;;;5.19;73.96
75166;BME280;63747;48.042;10.088;2023-11-21T02:20:29;94667.72;;;5.16;73.61
75166;BME280;63747;48.042;10.088;2023-11-21T02:23:30;94667.03;;;5.14;73.84
75166;BME280;63747;48.042;10.088;2023-11-21T02:26:31;94671.19;;;5.17;74.04
75166;BME280;63747;48.042;10.088;2023-11-21T02:29:31;94666.97;;;5.06;74.33
75166;BME280;63747;48.042;10.088;2023-11-21T02:32:32;94670.16;;;4.92;74.32
75166;BME280;63747;48.042;10.088;2023-11-21T02:35:33;94655.31;;;4.83;74.33
75166;BME280;63747;48.042;10.088;2023-11-21T02:38:34;94638.06;;;4.80;74.50
75166;BME280;63747;48.042;10.088;2023-11-21T02:41:37;94635.66;;;4.87;74.30
75166;BME280;63747;48.042;10.088;2023-11-21T02:44:37;94634.31;;;4.83;74.09
75166;BME280;63747;48.042;10.088;2023-11-21T02:47:39;94633.13;;;4.77;74.29
75166;BME280;63747;48.042;10.088;2023-11-21T02:50:39;94650.00;;;4.75;74.52
75166;BME280;63747;48.042;10.088;2023-11-21T02:53:40;94644.38;;;4.70;74.46
75166;BME280;63747;48.042;10.088;2023-11-21T02:56:41;94637.34;;;4.70;74.66
75166;BME280;63747;48.042;10.088;2023-11-21T02:59:41;94644.53;;;4.68;74.83
75166;BME280;63747;48.042;10.088;2023-11-21T03:02:43;94649.09;;;4.66;74.83
75166;BME280;63747;48.042;10.088;2023-11-21T03:05:44;94641.06;;;4.68;74.83
75166;BME280;63747;48.042;10.088;2023-11-21T03:08:44;94641.59;;;4.71;74.83
75166;BME280;63747;48.042;10.088;2023-11-21T03:11:45;94634.38;;;4.73;74.87
75166;BME280;63747;48.042;10.088;2023-11-21T03:14:46;94629.69;;;4.77;74.69
75166;BME280;63747;48.042;10.088;2023-11-21T03:17:47;94624.09;;;4.80;74.49
75166;BME280;63747;48.042;10.088;2023-11-21T03:20:49;94627.09;;;4.85;74.21
75166;BME280;63747;48.042;10.088;2023-11-21T03:23:50;94621.31;;;4.81;74.22
75166;BME280;63747;48.042;10.088;2023-11-21T03:26:50;94620.97;;;4.76;74.52
75166;BME280;63747;48.042;10.088;2023-11-21T03:29:51;94631.97;;;4.80;74.48
75166;BME280;63747;48.042;10.088;2023-11-21T03:32:52;94627.34;;;4.74;74.56
75166;BME280;63747;48.042;10.088;2023-11-21T03:35:52;94627.22;;;4.75;74.54
75166;BME280;63747;48.042;10.088;2023-11-21T03:38:53;94632.47;;;4.75;74.54
75166;BME280;63747;48.042;10.088;2023-11-21T03:41:55;94626.00;;;4.70;74.69
75166;BME280;63747;48.042;10.088;2023-11-21T03:44:56;94636.13;;;4.65;74.74
75166;BME280;63747;48.042;10.088;2023-11-21T03:47:56;94632.03;;;4.62;75.02
75166;BME280;63747;48.042;10.088;2023-11-21T03:50:57;94636.72;;;4.58;74.92
75166;BME280;63747;48.042;10.088;2023-11-21T03:53:58;94635.91;;;4.58;74.92
75166;BME280;63747;48.042;10.088;2023-11-21T03:56:58;94640.03;;;4.60;74.94
75166;BME280;63747;48.042;10.088;2023-11-21T03:59:59;94641.38;;;4.65;74.94
75166;BME280;63747;48.042;10.088;2023-11-21T04:03:00;94645.97;;;4.63;74.99
75166;BME280;63747;48.042;10.088;2023-11-21T04:06:00;94643.13;;;4.56;74.96
75166;BME280;63747;48.042;10.088;2023-11-21T04:09:01;94654.13;;;4.59;75.04
75166;BME280;63747;48.042;10.088;2023-11-21T04:12:04;94645.44;;;4.59;74.90
75166;BME280;63747;48.042;10.088;2023-11-21T04:15:05;94648.59;;;4.63;74.69
75166;BME280;63747;48.042;10.088;2023-11-21T04:18:08;94651.06;;;4.64;74.51
75166;BME280;63747;48.042;10.088;2023-11-21T04:21:09;94649.41;;;4.63;74.64
75166;BME280;63747;48.042;10.088;2023-11-21T04:24:10;94646.25;;;4.59;74.33
75166;BME280;63747;48.042;10.088;2023-11-21T04:27:10;94643.25;;;4.54;74.24
75166;BME280;63747;48.042;10.088;2023-11-21T04:30:12;94643.72;;;4.50;74.30
75166;BME280;63747;48.042;10.088;2023-11-21T04:33:13;94647.75;;;4.44;74.32
75166;BME280;63747;48.042;10.088;2023-11-21T04:36:14;94647.91;;;4.43;74.31
75166;BME280;63747;48.042;10.088;2023-11-21T04:39:14;94641.06;;;4.32;74.57
75166;BME280;63747;48.042;10.088;2023-11-21T04:42:15;94648.94;;;4.32;74.71
75166;BME280;63747;48.042;10.088;2023-11-21T04:45:16;94649.91;;;4.31;74.64
75166;BME280;63747;48.042;10.088;2023-11-21T04:48:17;94647.22;;;4.23;74.90
75166;BME280;63747;48.042;10.088;2023-11-21T04:51:17;94647.22;;;4.23;75.21
75166;BME280;63747;48.042;10.088;2023-11-21T04:54:18;94644.06;;;4.19;75.33
75166;BME280;63747;48.042;10.088;2023-11-21T04:57:18;94644.88;;;4.20;75.10
75166;BME280;63747;48.042;10.088;2023-11-21T05:00:19;94641.16;;;4.22;75.15
75166;BME280;63747;48.042;10.088;2023-11-21T05:03:21;94645.56;;;4.22;74.96
75166;BME280;63747;48.042;10.088;2023-11-21T05:06:23;94647.97;;;4.15;74.98
75166;BME280;63747;48.042;10.088;2023-11-21T05:09:24;94644.53;;;4.15;74.81
75166;BME280;63747;48.042;10.088;2023-11-21T05:12:25;94643.97;;;4.11;74.98
75166;BME280;63747;48.042;10.088;2023-11-21T05:15:26;94649.22;;;4.11;74.97
75166;BME280;63747;48.042;10.088;2023-11-21T05:18:27;94646.91;;;4.08;75.01
75166;BME280;63747;48.042;10.088;2023-11-21T05:21:30;94653.25;;;4.05;74.84
75166;BME280;63747;48.042;10.088;2023-11-21T05:24:34;94650.94;;;4.02;74.90
75166;BME280;63747;48.042;10.088;2023-11-21T05:27:35;94649.97;;;4.03;74.75
75166;BME280;63747;48.042;10.088;2023-11-21T05:30:36;94656.84;;;4.04;75.03
75166;BME280;63747;48.042;10.088;2023-11-21T05:33:38;94654.97;;;3.97;75.22
75166;BME280;63747;48.042;10.088;2023-11-21T05:36:39;94664.19;;;4.01;74.97
75166;BME280;63747;48.042;10.088;2023-11-21T05:39:40;94660.88;;;3.99;74.99
75166;BME280;63747;48.042;10.088;2023-11-21T05:42:40;94654.81;;;3.98;75.13
75166;BME280;63747;48.042;10.088;2023-11-21T05:45:41;94657.44;;;3.98;75.18
75166;BME280;63747;48.042;10.088;2023-11-21T05:48:42;94656.75;;;3.96;75.11
75166;BME280;63747;48.042;10.088;2023-11-21T05:51:43;94652.94;;;3.91;75.19
75166;BME280;63747;48.042;10.088;2023-11-21T05:54:45;94661.78;;;3.90;75.38
75166;BME280;63747;48.042;10.088;2023-11-21T05:57:46;94663.03;;;3.86;75.45
75166;BME280;63747;48.042;10.088;2023-11-21T06:00:46;94658.06;;;3.83;75.65
75166;BME280;63747;48.042;10.088;2023-11-21T06:03:47;94670.59;;;3.89;75.67
75166;BME280;63747;48.042;10.088;2023-11-21T06:06:48;94675.03;;;3.88;75.81
75166;BME280;63747;48.042;10.088;2023-11-21T06:09:49;94676.38;;;3.92;75.86
75166;BME280;63747;48.042;10.088;2023-11-21T06:12:50;94665.59;;;3.95;75.87
75166;BME280;63747;48.042;10.088;2023-11-21T06:15:51;94686.97;;;4.00;75.90
75166;BME280;63747;48.042;10.088;2023-11-21T06:18:52;94677.00;;;4.04;75.75
75166;BME280;63747;48.042;10.088;2023-11-21T06:21:53;94674.38;;;4.04;75.59
75166;BME280;63747;48.042;10.088;2023-11-21T06:24:53;94679.88;;;4.11;75.76
75166;BME280;63747;48.042;10.088;2023-11-21T06:27:54;94681.44;;;4.03;75.86
75166;BME280;63747;48.042;10.088;2023-11-21T06:30:55;94687.91;;;4.09;75.86
75166;BME280;63747;48.042;10.088;2023-11-21T06:33:55;94687.75;;;4.11;75.91
75166;BME280;63747;48.042;10.088;2023-11-21T06:36:56;94697.25;;;4.12;75.86
75166;BME280;63747;48.042;10.088;2023-11-21T06:39:57;94701.25;;;4.16;75.71
75166;BME280;63747;48.042;10.088;2023-11-21T06:42:58;94704.38;;;4.19;75.74
75166;BME280;63747;48.042;10.088;2023-11-21T06:45:59;94700.66;;;4.22;75.72
75166;BME280;63747;48.042;10.088;2023-11-21T06:49:00;94701.63;;;4.21;75.72
75166;BME280;63747;48.042;10.088;2023-11-21T06:52:00;94701.91;;;4.18;75.84
75166;BME280;63747;48.042;10.088;2023-11-21T06:55:03;94703.03;;;4.15;75.95
75166;BME280;63747;48.042;10.088;2023-11-21T06:58:04;94701.91;;;4.18;75.71
75166;BME280;63747;48.042;10.088;2023-11-21T07:01:05;94705.50;;;4.17;76.05
75166;BME280;63747;48.042;10.088;2023-11-21T07:04:07;94704.69;;;4.16;76.14
75166;BME280;63747;48.042;10.088;2023-11-21T07:07:08;94721.25;;;4.17;76.04
75166;BME280;63747;48.042;10.088;2023-11-21T07:10:09;94715.69;;;4.20;75.80
75166;BME280;63747;48.042;10.088;2023-11-21T07:13:10;94721.66;;;4.22;75.84
75166;BME280;63747;48.042;10.088;2023-11-21T07:16:12;94726.75;;;4.23;75.79
75166;BME280;63747;48.042;10.088;2023-11-21T07:19:13;94728.13;;;4.27;75.86
75166;BME280;63747;48.042;10.088;2023-11-21T07:22:14;94724.22;;;4.31;75.87
75166;BME280;63747;48.042;10.088;2023-11-21T07:25:15;94730.34;;;4.40;75.77
75166;BME280;63747;48.042;10.088;2023-11-21T07:28:16;94732.97;;;4.40;75.33
75166;BME280;63747;48.042;10.088;2023-11-21T07:31:17;94733.53;;;4.44;75.62
75166;BME280;63747;48.042;10.088;2023-11-21T07:34:18;94739.00;;;4.50;75.41
75166;BME280;63747;48.042;10.088;2023-11-21T07:37:19;94741.63;;;4.50;75.41
75166;BME280;63747;48.042;10.088;2023-11-21T07:40:20;94741.88;;;4.57;75.60
75166;BME280;63747;48.042;10.088;2023-11-21T07:43:22;94741.13;;;4.65;75.48
75166;BME280;63747;48.042;10.088;2023-11-21T07:46:22;94737.69;;;4.64;75.27
75166;BME280;63747;48.042;10.088;2023-11-21T07:49:24;94740.81;;;4.68;75.33
75166;BME280;63747;48.042;10.088;2023-11-21T07:52:26;94747.44;;;4.72;75.31
75166;BME280;63747;48.042;10.088;2023-11-21T07:55:27;94748.50;;;4.79;75.32
75166;BME280;63747;48.042;10.088;2023-11-21T07:58:28;94747.81;;;4.77;75.22
75166;BME280;63747;48.042;10.088;2023-11-21T08:01:28;94747.91;;;4.85;75.46
75166;BME280;63747;48.042;10.088;2023-11-21T08:04:29;94749.25;;;4.89;75.26
75166;BME280;63747;48.042;10.088;2023-11-21T08:07:33;94735.97;;;4.91;75.06
75166;BME280;63747;48.042;10.088;2023-11-21T08:10:34;94738.97;;;4.96;75.24
75166;BME280;63747;48.042;10.088;2023-11-21T08:13:35;94748.50;;;4.97;75.09
75166;BME280;63747;48.042;10.088;2023-11-21T08:16:36;94754.75;;;4.96;75.29
75166;BME280;63747;48.042;10.088;2023-11-21T08:19:37;94750.59;;;4.93;75.33
75166;BME280;63747;48.042;10.088;2023-11-21T08:22:37;94751.56;;;4.92;75.43
75166;BME280;63747;48.042;10.088;2023-11-21T08:25:42;94755.56;;;4.96;75.47
75166;BME280;63747;48.042;10.088;2023-11-21T08:28:42;94758.53;;;5.01;75.52
75166;BME280;63747;48.042;10.088;2023-11-21T08:31:43;94752.03;;;5.05;75.37
75166;BME280;63747;48.042;10.088;2023-11-21T08:34:46;94755.03;;;5.10;75.51
75166;BME280;63747;48.042;10.088;2023-11-21T08:37:53;94763.41;;;5.14;75.39
75166;BME280;63747;48.042;10.088;2023-11-21T08:40:55;94757.41;;;5.22;75.17
75166;BME280;63747;48.042;10.088;2023-11-21T08:43:55;94766.97;;;5.23;74.94
75166;BME280;63747;48.042;10.088;2023-11-21T08:46:58;94770.69;;;5.20;75.14
75166;BME280;63747;48.042;10.088;2023-11-21T08:49:58;94775.78;;;5.22;75.23
75166;BME280;63747;48.042;10.088;2023-11-21T08:52:59;94774.59;;;5.34;75.11
75166;BME280;63747;48.042;10.088;2023-11-21T08:56:00;94779.56;;;5.37;75.03
75166;BME280;63747;48.042;10.088;2023-11-21T08:59:02;94775.63;;;5.41;75.02
75166;BME280;63747;48.042;10.088;2023-11-21T09:02:02;94768.72;;;5.40;74.84
75166;BME280;63747;48.042;10.088;2023-11-21T09:05:05;94774.81;;;5.40;74.74
75166;BME280;63747;48.042;10.088;2023-11-21T09:08:06;94766.47;;;5.45;74.87
75166;BME280;63747;48.042;10.088;2023-11-21T09:11:07;94779.06;;;5.59;74.71
75166;BME280;63747;48.042;10.088;2023-11-21T09:14:08;94778.81;;;5.70;74.46
75166;BME280;63747;48.042;10.088;2023-11-21T09:17:10;94780.53;;;5.80;74.25
75166;BME280;63747;48.042;10.088;2023-11-21T09:20:14;94782.41;;;5.87;73.88
75166;BME280;63747;48.042;10.088;2023-11-21T09:23:15;94792.19;;;6.03;73.66
75166;BME280;63747;48.042;10.088;2023-11-21T09:26:16;94781.16;;;6.25;73.26
75166;BME280;63747;48.042;10.088;2023-11-21T09:29:17;94782.03;;;6.42;73.00
75166;BME280;63747;48.042;10.088;2023-11-21T09:32:19;94787.03;;;6.53;72.92
75166;BME280;63747;48.042;10.088;2023-11-21T09:35:21;94796.13;;;6.67;72.74
75166;BME280;63747;48.042;10.088;2023-11-21T09:38:22;94792.03;;;6.73;72.44
75166;BME280;63747;48.042;10.088;2023-11-21T09:41:33;94795.31;;;6.67;72.26
75166;BME280;63747;48.042;10.088;2023-11-21T09:44:40;94797.97;;;6.75;72.35
75166;BME280;63747;48.042;10.088;2023-11-21T09:47:43;94798.78;;;6.84;72.19
75166;BME280;63747;48.042;10.088;2023-11-21T09:50:47;94794.41;;;7.00;72.13
75166;BME280;63747;48.042;10.088;2023-11-21T09:53:49;94791.63;;;7.10;71.74
75166;BME280;63747;48.042;10.088;2023-11-21T09:56:52;94795.59;;;7.22;71.59
75166;BME280;63747;48.042;10.088;2023-11-21T09:59:54;94803.16;;;7.25;71.47
75166;BME280;63747;48.042;10.088;2023-11-21T10:02:59;94803.50;;;7.14;71.10
75166;BME280;63747;48.042;10.088;2023-11-21T10:06:01;94797.22;;;7.15;71.41
75166;BME280;63747;48.042;10.088;2023-11-21T10:09:03;94801.69;;;7.23;71.15
75166;BME280;63747;48.042;10.088;2023-11-21T10:12:05;94797.88;;;7.17;70.79
75166;BME280;63747;48.042;10.088;2023-11-21T10:15:10;94803.66;;;7.21;70.91
75166;BME280;63747;48.042;10.088;2023-11-21T10:18:12;94794.59;;;7.23;70.62
75166;BME280;63747;48.042;10.088;2023-11-21T10:21:15;94801.19;;;7.19;70.26
75166;BME280;63747;48.042;10.088;2023-11-21T10:24:16;94792.78;;;7.24;70.39
75166;BME280;63747;48.042;10.088;2023-11-21T10:27:18;94797.28;;;7.40;70.23
75166;BME280;63747;48.042;10.088;2023-11-21T10:30:18;94799.56;;;7.43;69.89
75166;BME280;63747;48.042;10.088;2023-11-21T10:33:27;94792.97;;;7.30;69.31
75166;BME280;63747;48.042;10.088;2023-11-21T10:36:29;94793.47;;;7.34;69.55
75166;BME280;63747;48.042;10.088;2023-11-21T10:39:29;94785.38;;;7.35;69.17
75166;BME280;63747;48.042;10.088;2023-11-21T10:42:32;94792.13;;;7.30;68.97
75166;BME280;63747;48.042;10.088;2023-11-21T10:45:32;94795.59;;;7.39;69.17
75166;BME280;63747;48.042;10.088;2023-11-21T10:48:34;94791.81;;;7.49;68.91
75166;BME280;63747;48.042;10.088;2023-11-21T10:51:35;94786.06;;;7.46;68.85
75166;BME280;63747;48.042;10.088;2023-11-21T10:54:37;94784.56;;;7.51;69.00
75166;BME280;63747;48.042;10.088;2023-11-21T10:57:38;94793.63;;;7.57;68.00
75166;BME280;63747;48.042;10.088;2023-11-21T11:00:39;94791.66;;;7.67;67.98
75166;BME280;63747;48.042;10.088;2023-11-21T11:03:41;94792.03;;;7.80;67.86
75166;BME280;63747;48.042;10.088;2023-11-21T11:06:43;94794.31;;;7.83;67.77
75166;BME280;63747;48.042;10.088;2023-11-21T11:09:44;94792.03;;;7.80;67.46
75166;BME280;63747;48.042;10.088;2023-11-21T11:12:45;94796.63;;;7.95;67.75
75166;BME280;63747;48.042;10.088;2023-11-21T11:15:47;94795.28;;;8.07;67.71
75166;BME280;63747;48.042;10.088;2023-11-21T11:18:48;94793.94;;;8.11;67.31
75166;BME280;63747;48.042;10.088;2023-11-21T11:25:35;94790.97;;;8.06;66.82
75166;BME280;63747;48.042;10.088;2023-11-21T11:28:51;94796.56;;;8.11;67.04
75166;BME280;63747;48.042;10.088;2023-11-21T11:32:11;94802.69;;;8.11;66.87
75166;BME280;63747;48.042;10.088;2023-11-21T11:35:19;94797.94;;;8.07;66.58
75166;BME280;63747;48.042;10.088;2023-11-21T11:38:22;94793.13;;;8.02;66.31
75166;BME280;63747;48.042;10.088;2023-11-21T11:41:30;94794.81;;;7.79;66.02
75166;BME280;63747;48.042;10.088;2023-11-21T11:47:47;94792.50;;;7.76;66.84
75166;BME280;63747;48.042;10.088;2023-11-21T11:51:01;94786.41;;;7.83;66.56
75166;BME280;63747;48.042;10.088;2023-11-21T11:54:06;94786.41;;;7.83;66.36
75166;BME280;63747;48.042;10.088;2023-11-21T11:57:07;94782.44;;;7.79;66.33
75166;BME280;63747;48.042;10.088;2023-11-21T12:00:09;94783.06;;;7.98;66.61
75166;BME280;63747;48.042;10.088;2023-11-21T12:03:11;94781.09;;;8.08;65.95
75166;BME280;63747;48.042;10.088;2023-11-21T12:06:11;94777.78;;;8.14;65.69
75166;BME280;63747;48.042;10.088;2023-11-21T12:09:18;94769.31;;;8.27;64.92
75166;BME280;63747;48.042;10.088;2023-11-21T12:12:22;94772.44;;;8.30;64.55
75166;BME280;63747;48.042;10.088;2023-11-21T12:15:22;94776.59;;;8.25;64.50
75166;BME280;63747;48.042;10.088;2023-11-21T12:18:23;94775.94;;;8.23;64.82
75166;BME280;63747;48.042;10.088;2023-11-21T12:21:26;94779.28;;;8.56;64.34
75166;BME280;63747;48.042;10.088;2023-11-21T12:24:28;94771.78;;;8.76;64.24
75166;BME280;63747;48.042;10.088;2023-11-21T12:27:29;94770.53;;;8.86;62.58
75166;BME280;63747;48.042;10.088;2023-11-21T12:30:31;94774.13;;;9.24;62.36
75166;BME280;63747;48.042;10.088;2023-11-21T12:33:35;94775.31;;;9.68;61.90
75166;BME280;63747;48.042;10.088;2023-11-21T12:36:35;94773.59;;;9.75;62.13
75166;BME280;63747;48.042;10.088;2023-11-21T12:39:36;94779.38;;;9.93;61.43
75166;BME280;63747;48.042;10.088;2023-11-21T12:42:39;94777.06;;;10.43;60.91
75166;BME280;63747;48.042;10.088;2023-11-21T12:45:39;94775.13;;;10.66;59.60
75166;BME280;63747;48.042;10.088;2023-11-21T12:48:44;94777.59;;;10.68;59.51
75166;BME280;63747;48.042;10.088;2023-11-21T12:51:48;94787.69;;;10.57;59.75
75166;BME280;63747;48.042;10.088;2023-11-21T12:54:49;94793.22;;;10.33;60.14
75166;BME280;63747;48.042;10.088;2023-11-21T12:57:51;94800.44;;;9.72;60.59
75166;BME280;63747;48.042;10.088;2023-11-21T13:00:52;94807.53;;;8.86;61.90
75166;BME280;63747;48.042;10.088;2023-11-21T13:03:54;94808.03;;;8.51;63.25
75166;BME280;63747;48.042;10.088;2023-11-21T13:06:54;94802.25;;;8.55;64.47
75166;BME280;63747;48.042;10.088;2023-11-21T13:09:56;94803.66;;;8.66;64.99
75166;BME280;63747;48.042;10.088;2023-11-21T13:12:58;94797.03;;;8.78;64.57
75166;BME280;63747;48.042;10.088;2023-11-21T13:16:01;94803.94;;;8.79;64.44
75166;BME280;63747;48.042;10.088;2023-11-21T13:19:05;94805.44;;;8.74;64.96
75166;BME280;63747;48.042;10.088;2023-11-21T13:22:05;94802.69;;;8.67;65.12
75166;BME280;63747;48.042;10.088;2023-11-21T13:25:06;94810.75;;;8.74;65.08
75166;BME280;63747;48.042;10.088;2023-11-21T13:28:08;94810.88;;;8.80;65.50
75166;BME280;63747;48.042;10.088;2023-11-21T13:31:21;94816.06;;;9.27;65.33
75166;BME280;63747;48.042;10.088;2023-11-21T13:34:26;94812.38;;;9.45;64.67
75166;BME280;63747;48.042;10.088;2023-11-21T13:37:27;94816.91;;;9.28;64.66
75166;BME280;63747;48.042;10.088;2023-11-21T13:40:32;94813.78;;;9.02;65.08
75166;BME280;63747;48.042;10.088;2023-11-21T13:43:39;94817.84;;;8.73;65.37
75166;BME280;63747;48.042;10.088;2023-11-21T13:46:44;94823.19;;;8.57;65.75
75166;BME280;63747;48.042;10.088;2023-11-21T13:49:45;94821.75;;;8.38;66.25
75166;BME280;63747;48.042;10.088;2023-11-21T13:52:49;94819.81;;;8.24;67.03
75166;BME280;63747;48.042;10.088;2023-11-21T13:55:53;94838.16;;;8.17;66.91
75166;BME280;63747;48.042;10.088;2023-11-21T13:59:00;94849.06;;;7.98;66.86
75166;BME280;63747;48.042;10.088;2023-11-21T14:02:09;94860.41;;;7.57;67.85
75166;BME280;63747;48.042;10.088;2023-11-21T14:05:18;94867.91;;;7.20;67.80
75166;BME280;63747;48.042;10.088;2023-11-21T14:08:29;94869.06;;;7.17;67.80
75166;BME280;63747;48.042;10.088;2023-11-21T14:11:29;94865.47;;;7.26;67.80
75166;BME280;63747;48.042;10.088;2023-11-21T14:14:30;94863.75;;;7.09;67.90
75166;BME280;63747;48.042;10.088;2023-11-21T14:17:31;94869.03;;;7.09;68.54
75166;BME280;63747;48.042;10.088;2023-11-21T14:20:32;94871.56;;;7.27;68.81
75166;BME280;63747;48.042;10.088;2023-11-21T14:23:33;94863.19;;;7.40;68.88
75166;BME280;63747;48.042;10.088;2023-11-21T14:26:36;94863.03;;;7.49;68.70
75166;BME280;63747;48.042;10.088;2023-11-21T14:29:36;94867.31;;;7.50;68.55
75166;BME280;63747;48.042;10.088;2023-11-21T14:32:39;94869.94;;;7.50;68.69
75166;BME280;63747;48.042;10.088;2023-11-21T14:35:40;94877.56;;;7.53;68.81
75166;BME280;63747;48.042;10.088;2023-11-21T14:38:41;94869.13;;;7.50;69.00
75166;BME280;63747;48.042;10.088;2023-11-21T14:41:42;94868.31;;;7.49;69.14
75166;BME280;63747;48.042;10.088;2023-11-21T14:44:44;94871.59;;;7.51;68.96
75166;BME280;63747;48.042;10.088;2023-11-21T14:47:48;94862.84;;;7.51;69.07
75166;BME280;63747;48.042;10.088;2023-11-21T14:51:15;94865.00;;;7.47;68.98
75166;BME280;63747;48.042;10.088;2023-11-21T14:54:32;94863.66;;;7.43;69.22
75166;BME280;63747;48.042;10.088;2023-11-21T14:57:46;94872.41;;;7.44;69.34
75166;BME280;63747;48.042;10.088;2023-11-21T15:00:50;94866.31;;;7.43;69.47
75166;BME280;63747;48.042;10.088;2023-11-21T15:03:52;94868.78;;;7.45;69.42
75166;BME280;63747;48.042;10.088;2023-11-21T15:06:55;94877.19;;;7.40;69.38
75166;BME280;63747;48.042;10.088;2023-11-21T15:09:58;94879.66;;;7.33;69.40
75166;BME280;63747;48.042;10.088;2023-11-21T15:12:59;94881.78;;;7.30;69.45
75166;BME280;63747;48.042;10.088;2023-11-21T15:15:59;94887.84;;;7.14;69.62
75166;BME280;63747;48.042;10.088;2023-11-21T15:19:07;94894.22;;;7.12;69.67
75166;BME280;63747;48.042;10.088;2023-11-21T15:22:09;94901.66;;;7.08;69.54
75166;BME280;63747;48.042;10.088;2023-11-21T15:25:15;94901.94;;;6.97;69.71
75166;BME280;63747;48.042;10.088;2023-11-21T15:28:16;94903.06;;;6.86;69.96
75166;BME280;63747;48.042;10.088;2023-11-21T15:31:18;94908.63;;;6.83;69.80
75166;BME280;63747;48.042;10.088;2023-11-21T15:34:23;94909.97;;;6.53;70.36
75166;BME280;63747;48.042;10.088;2023-11-21T15:37:26;94913.91;;;6.57;70.64
75166;BME280;63747;48.042;10.088;2023-11-21T15:40:28;94910.00;;;6.61;70.58
75166;BME280;63747;48.042;10.088;2023-11-21T15:43:29;94920.38;;;6.63;70.57
75166;BME280;63747;48.042;10.088;2023-11-21T15:46:30;94927.59;;;6.61;70.66
75166;BME280;63747;48.042;10.088;2023-11-21T15:49:31;94923.38;;;6.42;70.96
75166;BME280;63747;48.042;10.088;2023-11-21T15:52:36;94928.44;;;6.35;71.49
75166;BME280;63747;48.042;10.088;2023-11-21T15:55:37;94930.00;;;6.46;71.69
75166;BME280;63747;48.042;10.088;2023-11-21T15:58:42;94932.25;;;6.41;71.64
75166;BME280;63747;48.042;10.088;2023-11-21T16:01:43;94927.19;;;6.47;71.50
75166;BME280;63747;48.042;10.088;2023-11-21T16:04:46;94931.03;;;6.53;71.36
75166;BME280;63747;48.042;10.088;2023-11-21T16:07:47;94932.66;;;6.54;71.05
75166;BME280;63747;48.042;10.088;2023-11-21T16:10:48;94942.31;;;6.45;71.21